Weather Data

Pearl Creek Farm: 8878 N Farm Road 75, Walnut Grove MO 65770

<== Previous Day (Saturday 02 Apr 2016) | Next Day (Monday 04 Apr 2016) ==>

Summary Precipitation Data For Sunday 03 April 2016

ElementValueUnits
Precipitation0"
Notes(none)
SourcePearl Creek Farm

Summary Temperature Data For Sunday 03 April 2016

ElementValueUnits
High Temperature73 oF
Low Temperature37 oF
Average Temperature57 oF
High Humidity76 %
Low Humidity23 %
Average Humidity46 %
SourceSpringfield-Branson National Airport (SGF)

Detail Temperature Data For Sunday 03 April 2016

Date / TimeTemp (F)RH (%)Dew Pt (F)Report Date / TimeSource
2016-04-03 00:52:00 39 73 31.0 2017-12-29 17:00:26.17417 Springfield-Branson National Airport (SGF)
2016-04-03 01:52:00 37 76 30.0 2017-12-29 17:00:26.17417 Springfield-Branson National Airport (SGF)
2016-04-03 02:52:00 39 73 31.0 2017-12-29 17:00:26.17417 Springfield-Branson National Airport (SGF)
2016-04-03 03:52:00 40 73 32.0 2017-12-29 17:00:26.17417 Springfield-Branson National Airport (SGF)
2016-04-03 04:52:00 42 68 32.0 2017-12-29 17:00:26.17417 Springfield-Branson National Airport (SGF)
2016-04-03 05:52:00 42 71 33.0 2017-12-29 17:00:26.17417 Springfield-Branson National Airport (SGF)
2016-04-03 06:52:00 45 63 33.0 2017-12-29 17:00:26.17417 Springfield-Branson National Airport (SGF)
2016-04-03 07:52:00 53 51 35.0 2017-12-29 17:00:26.17417 Springfield-Branson National Airport (SGF)
2016-04-03 08:52:00 58 44 36.0 2017-12-29 17:00:26.17417 Springfield-Branson National Airport (SGF)
2016-04-03 09:52:00 64 38 38.0 2017-12-29 17:00:26.17417 Springfield-Branson National Airport (SGF)
2016-04-03 10:52:00 68 30 35.0 2017-12-29 17:00:26.17417 Springfield-Branson National Airport (SGF)
2016-04-03 11:52:00 70 28 35.0 2017-12-29 17:00:26.17417 Springfield-Branson National Airport (SGF)
2016-04-03 12:52:00 72 25 34.0 2017-12-29 17:00:26.17417 Springfield-Branson National Airport (SGF)
2016-04-03 13:52:00 72 24 33.0 2017-12-29 17:00:26.17417 Springfield-Branson National Airport (SGF)
2016-04-03 14:52:00 73 23 33.0 2017-12-29 17:00:26.17417 Springfield-Branson National Airport (SGF)
2016-04-03 15:52:00 73 23 33.0 2017-12-29 17:00:26.17417 Springfield-Branson National Airport (SGF)
2016-04-03 16:52:00 72 26 35.0 2017-12-29 17:00:26.17417 Springfield-Branson National Airport (SGF)
2016-04-03 17:52:00 70 26 33.0 2017-12-29 17:00:26.17417 Springfield-Branson National Airport (SGF)
2016-04-03 18:52:00 60 41 36.0 2017-12-29 17:00:26.17417 Springfield-Branson National Airport (SGF)
2016-04-03 19:52:00 58 44 36.0 2017-12-29 17:00:26.17417 Springfield-Branson National Airport (SGF)
2016-04-03 20:52:00 55 47 35.0 2017-12-29 17:00:26.17417 Springfield-Branson National Airport (SGF)
2016-04-03 21:52:00 58 41 34.0 2017-12-29 17:00:26.17417 Springfield-Branson National Airport (SGF)
2016-04-03 22:52:00 56 46 35.0 2017-12-29 17:00:26.17417 Springfield-Branson National Airport (SGF)
2016-04-03 23:52:00 56 46 35.0 2017-12-29 17:00:26.17417 Springfield-Branson National Airport (SGF)

A total of 24 rows are displayed.